Time;durP1;ratioP1;P1;durP2;ratioP2;P2;SDS_P1;SDS_P2;PMS_P1;PMS_P2;Temp;Humidity;BMP_temperature;BMP_pressure;BME280_temperature;BME280_humidity;BME280_pressure;Samples;Min_cycle;Max_cycle;Signal;HPM_P1;HPM_P2
2022/08/15 00:00:40;;;;;;;8.73;5.35;;;21.40;68.60;;;;;;5015998;28;20117;-15
2022/08/15 00:03:18;;;;;;;6.95;5.43;;;21.40;68.70;;;;;;5016266;28;20030;-15
2022/08/15 00:05:45;;;;;;;7.15;5.15;;;21.40;69.00;;;;;;5016126;28;20465;-16
2022/08/15 00:08:12;;;;;;;6.47;5.28;;;21.40;69.00;;;;;;5015808;28;20135;-15
2022/08/15 00:10:38;;;;;;;8.50;5.75;;;21.30;69.10;;;;;;5015966;28;20041;-14
2022/08/15 00:13:23;;;;;;;6.68;5.50;;;21.30;69.60;;;;;;5014777;28;20042;-14
2022/08/15 00:15:51;;;;;;;11.85;8.48;;;21.20;70.00;;;;;;5015868;28;20092;-13
2022/08/15 00:18:18;;;;;;;10.13;7.47;;;21.20;69.70;;;;;;5016104;28;20110;-15
2022/08/15 00:20:45;;;;;;;7.03;5.68;;;21.20;69.90;;;;;;5015780;28;20030;-15
2022/08/15 00:23:14;;;;;;;7.30;5.70;;;21.20;70.20;;;;;;5015837;28;20033;-14
2022/08/15 00:25:44;;;;;;;7.25;5.22;;;21.20;70.20;;;;;;5015926;28;20018;-14
2022/08/15 00:28:10;;;;;;;7.43;5.82;;;21.20;70.20;;;;;;5015703;28;20082;-13
2022/08/15 00:30:38;;;;;;;8.55;6.43;;;21.20;70.20;;;;;;5015421;28;20038;-13
2022/08/15 00:33:04;;;;;;;7.57;5.25;;;21.20;70.50;;;;;;5015638;28;20026;-12
2022/08/15 00:35:36;;;;;;;7.55;5.72;;;21.20;70.50;;;;;;5015427;28;20087;-13
2022/08/15 00:38:13;;;;;;;5.85;4.82;;;21.20;71.00;;;;;;5014282;28;20026;-14
2022/08/15 00:43:40;;;;;;;6.88;5.53;;;21.20;71.10;;;;;;5015634;28;20060;-13
2022/08/15 00:46:09;;;;;;;8.02;5.50;;;21.30;71.50;;;;;;5015326;28;20091;-14
2022/08/15 00:48:41;;;;;;;7.63;5.80;;;21.30;71.40;;;;;;5015426;28;20022;-14
2022/08/15 00:51:30;;;;;;;7.90;5.55;;;21.20;71.50;;;;;;5015150;28;20053;-15
2022/08/15 00:54:13;;;;;;;7.55;5.72;;;21.20;71.30;;;;;;5015557;28;20029;-15
2022/08/15 00:56:48;;;;;;;8.70;6.57;;;21.20;71.90;;;;;;5015481;28;20037;-14
2022/08/15 00:59:19;;;;;;;9.60;6.30;;;21.10;72.60;;;;;;5015260;28;20030;-15
2022/08/15 01:01:46;;;;;;;8.32;6.13;;;21.10;72.50;;;;;;5015030;28;20426;-15
2022/08/15 01:04:15;;;;;;;8.57;6.35;;;21.00;72.30;;;;;;5015249;28;20037;-14
2022/08/15 01:06:43;;;;;;;11.25;6.43;;;21.00;72.20;;;;;;5014680;28;20050;-16
2022/08/15 01:09:10;;;;;;;10.30;7.57;;;20.90;72.00;;;;;;5014791;28;20030;-15
2022/08/15 01:11:47;;;;;;;8.05;6.68;;;20.90;73.00;;;;;;5014858;28;20028;-16
2022/08/15 01:14:16;;;;;;;11.07;7.63;;;20.90;72.60;;;;;;5014718;28;20499;-15
2022/08/15 01:16:42;;;;;;;9.30;7.40;;;20.90;72.30;;;;;;5014729;28;20032;-14
2022/08/15 01:19:17;;;;;;;9.82;7.85;;;20.90;72.70;;;;;;5014475;28;20036;-14
2022/08/15 01:22:24;;;;;;;10.65;7.72;;;20.90;73.30;;;;;;5014637;28;20120;-14
2022/08/15 01:24:56;;;;;;;10.75;7.68;;;20.90;73.90;;;;;;5014312;28;20025;-14
2022/08/15 01:27:26;;;;;;;8.38;6.50;;;20.90;72.90;;;;;;5014512;28;20521;-15
2022/08/15 01:29:53;;;;;;;10.15;7.10;;;20.90;72.60;;;;;;5014388;28;20104;-16
2022/08/15 01:32:20;;;;;;;10.40;8.05;;;20.90;72.40;;;;;;5014419;28;20026;-14
2022/08/15 01:34:47;;;;;;;8.38;6.78;;;20.90;72.20;;;;;;5014329;28;20053;-14
2022/08/15 01:37:14;;;;;;;9.93;6.88;;;20.90;72.10;;;;;;5014354;28;20044;-14
2022/08/15 01:39:58;;;;;;;9.27;6.65;;;21.00;71.90;;;;;;5014366;28;20026;-14
2022/08/15 01:42:32;;;;;;;12.85;8.63;;;21.00;72.00;;;;;;5014593;28;20026;-15
2022/08/15 01:45:14;;;;;;;9.80;7.13;;;21.00;71.80;;;;;;5013912;28;20026;-15
2022/08/15 01:48:07;;;;;;;9.57;6.75;;;21.00;71.60;;;;;;5014447;28;20037;-14
2022/08/15 01:50:40;;;;;;;9.85;7.18;;;21.00;71.50;;;;;;5013302;28;20030;-13
2022/08/15 01:53:24;;;;;;;9.23;7.27;;;21.10;71.40;;;;;;5013958;28;20026;-15
2022/08/15 01:56:15;;;;;;;9.38;7.22;;;21.10;71.20;;;;;;5014390;28;20041;-14
2022/08/15 01:58:42;;;;;;;12.70;9.00;;;21.20;71.10;;;;;;5014160;28;20057;-13
2022/08/15 02:01:35;;;;;;;12.95;9.32;;;21.10;71.50;;;;;;5013749;28;20029;-14
2022/08/15 02:04:01;;;;;;;8.75;7.53;;;21.20;71.80;;;;;;5014271;28;20025;-16
2022/08/15 02:06:29;;;;;;;10.60;8.18;;;21.20;71.40;;;;;;5013762;28;20013;-14
2022/08/15 02:08:56;;;;;;;9.48;7.03;;;21.30;71.00;;;;;;5013721;28;20030;-15
2022/08/15 02:11:25;;;;;;;11.70;9.02;;;21.30;70.60;;;;;;5013816;28;20040;-14
2022/08/15 02:13:54;;;;;;;9.52;7.20;;;21.40;71.10;;;;;;5012386;28;20026;-15
2022/08/15 02:16:23;;;;;;;8.35;7.20;;;21.40;70.40;;;;;;5013627;28;20106;-15
2022/08/15 02:18:49;;;;;;;10.18;8.20;;;21.40;70.10;;;;;;5013444;28;20026;-14
2022/08/15 02:21:15;;;;;;;8.68;6.65;;;21.40;70.20;;;;;;5014590;28;20025;-15
2022/08/15 02:23:41;;;;;;;13.80;8.25;;;21.40;70.10;;;;;;5012729;28;20405;-14
2022/08/15 02:26:08;;;;;;;10.77;7.50;;;21.30;70.70;;;;;;5013889;28;20382;-14
2022/08/15 02:28:38;;;;;;;10.30;8.18;;;21.30;70.50;;;;;;5013647;28;20026;-14
2022/08/15 02:31:10;;;;;;;8.55;6.43;;;21.30;70.50;;;;;;5013553;28;20109;-15
2022/08/15 02:33:38;;;;;;;9.50;7.00;;;21.20;70.20;;;;;;5013741;28;20080;-14
2022/08/15 02:36:04;;;;;;;8.82;6.72;;;21.20;70.00;;;;;;5013704;28;20026;-15
2022/08/15 02:38:31;;;;;;;10.88;6.40;;;21.20;70.10;;;;;;5013650;28;20049;-15
2022/08/15 02:40:58;;;;;;;9.48;7.38;;;21.20;70.20;;;;;;5013164;28;20030;-15
2022/08/15 02:43:24;;;;;;;10.77;6.78;;;21.10;70.60;;;;;;5013301;28;20144;-15
2022/08/15 02:45:51;;;;;;;9.98;7.05;;;21.10;70.30;;;;;;5013634;28;20105;-15
2022/08/15 02:48:18;;;;;;;8.20;6.28;;;21.10;70.30;;;;;;5013612;28;20054;-14
2022/08/15 02:50:45;;;;;;;7.57;5.97;;;21.10;70.00;;;;;;5013542;28;20037;-15
2022/08/15 02:53:17;;;;;;;9.25;5.75;;;21.20;70.00;;;;;;5013102;28;20026;-13
2022/08/15 02:55:46;;;;;;;7.97;5.53;;;21.10;69.90;;;;;;5013143;28;20148;-14
2022/08/15 02:58:13;;;;;;;9.88;7.35;;;21.10;69.60;;;;;;5013217;28;20030;-13
2022/08/15 03:00:41;;;;;;;10.27;8.48;;;21.20;69.70;;;;;;5011932;28;20155;-14
2022/08/15 03:03:11;;;;;;;10.15;7.28;;;21.10;70.20;;;;;;5014378;28;20026;-13
2022/08/15 03:05:42;;;;;;;9.82;7.45;;;21.10;70.00;;;;;;5017541;28;20061;-13
2022/08/15 03:08:07;;;;;;;9.15;6.78;;;21.10;70.10;;;;;;5012957;28;20050;-15
2022/08/15 03:10:35;;;;;;;8.70;6.90;;;21.10;70.40;;;;;;5017092;28;20030;-15
2022/08/15 03:13:08;;;;;;;10.57;8.55;;;21.10;70.70;;;;;;5017110;28;20033;-14
2022/08/15 03:15:43;;;;;;;9.30;7.75;;;21.10;71.70;;;;;;5017278;28;20104;-13
2022/08/15 03:18:10;;;;;;;13.05;7.90;;;21.10;71.30;;;;;;5016959;28;20541;-13
2022/08/15 03:20:36;;;;;;;8.93;6.95;;;21.10;71.30;;;;;;5017200;28;20017;-12
2022/08/15 03:23:07;;;;;;;10.27;8.00;;;21.10;71.00;;;;;;5016608;28;20449;-14
2022/08/15 03:25:39;;;;;;;12.18;8.77;;;21.10;70.90;;;;;;5016875;28;20022;-15
2022/08/15 03:28:06;;;;;;;11.55;8.98;;;21.10;70.80;;;;;;5017144;28;20078;-15
2022/08/15 03:30:32;;;;;;;13.02;7.57;;;21.10;70.70;;;;;;5015432;28;20034;-15
2022/08/15 03:32:59;;;;;;;9.75;7.43;;;21.10;70.80;;;;;;5016497;28;20030;-16
2022/08/15 03:35:29;;;;;;;10.98;7.22;;;21.10;71.60;;;;;;5016546;28;20026;-14
2022/08/15 03:37:57;;;;;;;8.82;7.07;;;21.10;71.30;;;;;;5017212;28;20050;-16
2022/08/15 03:40:23;;;;;;;9.32;7.05;;;21.10;72.00;;;;;;5016585;28;20041;-14
2022/08/15 03:42:54;;;;;;;12.07;9.20;;;21.10;72.00;;;;;;5016609;28;20025;-16
2022/08/15 03:45:20;;;;;;;13.05;8.88;;;21.10;72.20;;;;;;5016531;28;20501;-16
2022/08/15 03:47:47;;;;;;;13.10;9.57;;;21.10;72.40;;;;;;5016757;28;20113;-14
2022/08/15 03:50:14;;;;;;;11.70;8.48;;;21.10;72.70;;;;;;5016614;28;20518;-15
2022/08/15 03:52:54;;;;;;;11.90;8.05;;;21.10;72.60;;;;;;5016462;28;20026;-15
2022/08/15 03:55:24;;;;;;;10.57;8.18;;;21.10;73.50;;;;;;5016205;28;20556;-14
2022/08/15 03:57:51;;;;;;;10.38;8.15;;;21.10;73.30;;;;;;5016535;28;20022;-15
2022/08/15 04:00:21;;;;;;;12.18;9.98;;;21.20;72.70;;;;;;5016396;28;20088;-14
2022/08/15 04:02:47;;;;;;;13.93;8.98;;;21.20;73.10;;;;;;5015999;28;20029;-14
2022/08/15 04:05:13;;;;;;;9.38;8.38;;;21.20;73.00;;;;;;5016611;28;20029;-16
2022/08/15 04:07:39;;;;;;;12.15;8.95;;;21.20;73.10;;;;;;5016058;28;20050;-15
2022/08/15 04:10:12;;;;;;;11.85;9.15;;;21.20;73.10;;;;;;5016199;28;20145;-14
2022/08/15 04:12:41;;;;;;;11.65;9.68;;;21.20;73.00;;;;;;5016259;28;20470;-14
2022/08/15 04:15:10;;;;;;;11.65;8.32;;;21.20;73.10;;;;;;5015112;28;20117;-14
2022/08/15 04:17:37;;;;;;;11.80;7.68;;;21.20;72.70;;;;;;5015863;28;20034;-13
2022/08/15 04:20:04;;;;;;;9.00;7.25;;;21.20;72.70;;;;;;5016126;28;20034;-14
2022/08/15 04:22:57;;;;;;;9.45;7.43;;;21.10;72.60;;;;;;5016033;28;20026;-14
2022/08/15 04:25:35;;;;;;;12.63;9.85;;;21.10;73.50;;;;;;5013747;28;20053;-13
2022/08/15 04:28:05;;;;;;;12.70;9.20;;;21.10;73.40;;;;;;5016027;28;20378;-16
2022/08/15 04:30:39;;;;;;;9.63;7.13;;;21.10;73.40;;;;;;5015730;28;20026;-14
2022/08/15 04:33:20;;;;;;;12.88;10.48;;;21.10;72.90;;;;;;5015452;28;20030;-16
2022/08/15 04:35:57;;;;;;;13.00;8.88;;;21.20;73.60;;;;;;5015521;28;20089;-15
2022/08/15 04:38:23;;;;;;;12.77;9.95;;;21.20;73.10;;;;;;5015802;28;20162;-14
2022/08/15 04:40:50;;;;;;;12.23;8.60;;;21.20;73.70;;;;;;5015205;28;20490;-16
2022/08/15 04:43:19;;;;;;;11.57;8.82;;;21.30;73.50;;;;;;5014233;28;20049;-15
2022/08/15 04:45:45;;;;;;;11.15;9.13;;;21.30;73.30;;;;;;5015230;28;20112;-14
2022/08/15 04:48:15;;;;;;;9.38;8.02;;;21.40;73.30;;;;;;5015269;28;20057;-14
2022/08/15 04:50:44;;;;;;;11.10;8.75;;;21.40;72.90;;;;;;5015690;28;20081;-14
2022/08/15 04:53:12;;;;;;;13.57;10.93;;;21.50;73.10;;;;;;5014980;28;20030;-15
2022/08/15 04:55:42;;;;;;;16.33;11.10;;;21.50;72.90;;;;;;5015595;28;20025;-16
2022/08/15 04:58:10;;;;;;;12.48;10.50;;;21.50;73.10;;;;;;5015214;28;20018;-16
2022/08/15 05:00:40;;;;;;;13.07;11.02;;;21.60;73.20;;;;;;5015086;28;20110;-15
2022/08/15 05:03:09;;;;;;;13.38;9.95;;;21.60;73.40;;;;;;5015188;28;20026;-14
2022/08/15 05:05:40;;;;;;;12.00;9.15;;;21.60;72.80;;;;;;5014916;28;20390;-14
2022/08/15 05:08:07;;;;;;;12.85;9.30;;;21.70;72.70;;;;;;5014830;28;20055;-15
2022/08/15 05:10:32;;;;;;;13.07;10.35;;;21.80;72.70;;;;;;5013677;28;20509;-15
2022/08/15 05:13:14;;;;;;;9.50;7.90;;;21.80;73.30;;;;;;5014569;28;20018;-14
2022/08/15 05:15:44;;;;;;;12.48;9.65;;;21.90;72.80;;;;;;5015025;28;20028;-16
2022/08/15 05:18:10;;;;;;;10.57;8.30;;;21.90;72.30;;;;;;5014995;28;20034;-14
2022/08/15 05:20:37;;;;;;;12.50;7.85;;;22.00;71.70;;;;;;5014963;28;20071;-14
2022/08/15 05:23:10;;;;;;;8.57;7.03;;;22.10;71.60;;;;;;5014477;28;20038;-16
2022/08/15 05:25:38;;;;;;;;;;;22.20;71.10;;;;;;5014793;28;20022;-16
2022/08/15 05:28:04;;;;;;;11.95;8.82;;;22.20;71.20;;;;;;5014899;28;19909;-16
2022/08/15 05:30:30;;;;;;;9.32;6.95;;;22.30;70.30;;;;;;5014377;28;20021;-15
2022/08/15 05:33:15;;;;;;;12.15;7.25;;;22.30;70.20;;;;;;5014537;28;20123;-15
2022/08/15 05:35:52;;;;;;;10.73;8.63;;;22.40;70.10;;;;;;5013231;28;20030;-16
2022/08/15 05:38:23;;;;;;;11.57;7.82;;;22.40;70.20;;;;;;5014733;28;20026;-15
2022/08/15 05:41:03;;;;;;;10.77;7.72;;;22.50;69.50;;;;;;5014200;28;20018;-16
2022/08/15 05:44:03;;;;;;;9.13;7.40;;;22.50;69.30;;;;;;5014684;28;20053;-15
2022/08/15 05:46:53;;;;;;;9.30;6.50;;;22.50;68.90;;;;;;5014668;28;20108;-14
2022/08/15 05:49:32;;;;;;;11.98;6.40;;;22.50;68.60;;;;;;5014495;28;20026;-14
2022/08/15 05:52:15;;;;;;;6.75;5.22;;;22.50;68.30;;;;;;5014399;28;20101;-14
2022/08/15 05:54:56;;;;;;;6.22;5.20;;;22.60;68.20;;;;;;5014522;28;20026;-14
2022/08/15 05:58:00;;;;;;;6.50;5.40;;;22.60;68.10;;;;;;5014401;28;20033;-16
2022/08/15 06:00:27;;;;;;;8.45;5.80;;;22.80;68.00;;;;;;5014238;28;20030;-13
2022/08/15 06:03:05;;;;;;;7.88;5.60;;;22.80;67.80;;;;;;5014074;28;20040;-13
2022/08/15 06:05:34;;;;;;;10.07;6.07;;;22.90;67.50;;;;;;5014278;28;20037;-14
2022/08/15 06:08:07;;;;;;;7.13;5.13;;;22.90;67.20;;;;;;5013734;28;20053;-13
2022/08/15 06:10:42;;;;;;;9.68;5.75;;;23.10;66.90;;;;;;5013987;28;20033;-13
2022/08/15 06:13:43;;;;;;;7.18;4.90;;;23.20;66.80;;;;;;5012512;28;20018;-16
2022/08/15 06:16:23;;;;;;;7.90;5.82;;;23.20;67.00;;;;;;5011647;28;20164;-14
2022/08/15 06:18:49;;;;;;;8.88;6.22;;;23.30;66.40;;;;;;5013529;28;20497;-14
2022/08/15 06:21:53;;;;;;;8.38;5.55;;;23.30;66.50;;;;;;5013943;28;20033;-14
2022/08/15 06:24:31;;;;;;;8.50;6.57;;;23.30;66.40;;;;;;4972475;28;20037;-14
2022/08/15 06:27:19;;;;;;;7.55;5.55;;;23.30;66.20;;;;;;4972411;28;20030;-14
2022/08/15 06:30:09;;;;;;;7.25;5.20;;;23.40;66.20;;;;;;4972715;28;20178;-14
2022/08/15 06:32:52;;;;;;;8.15;5.07;;;23.40;66.30;;;;;;4972586;28;20138;-14
2022/08/15 06:35:22;;;;;;;8.07;6.37;;;23.50;65.70;;;;;;4972536;28;20043;-14
2022/08/15 06:38:19;;;;;;;7.55;5.18;;;23.70;65.30;;;;;;4972300;28;20058;-13
2022/08/15 06:41:14;;;;;;;8.55;5.75;;;23.80;65.20;;;;;;4972465;28;20035;-14
2022/08/15 06:43:41;;;;;;;7.03;5.57;;;23.90;64.70;;;;;;4972097;28;20135;-13
2022/08/15 06:46:07;;;;;;;6.38;5.50;;;24.00;64.50;;;;;;4972285;28;20027;-15
2022/08/15 06:48:37;;;;;;;6.93;5.45;;;24.20;63.70;;;;;;4972270;28;20046;-14
2022/08/15 06:51:06;;;;;;;6.28;4.55;;;24.30;63.70;;;;;;4972091;28;20174;-13
2022/08/15 06:53:39;;;;;;;7.80;4.65;;;24.40;63.40;;;;;;4972249;28;20046;-13
2022/08/15 06:56:24;;;;;;;6.57;5.07;;;24.50;63.10;;;;;;4972191;28;20051;-15
2022/08/15 06:59:38;;;;;;;9.45;5.82;;;24.60;62.60;;;;;;4971977;28;20038;-15
2022/08/15 07:02:04;;;;;;;5.75;4.40;;;24.70;62.30;;;;;;5013095;28;20038;-14
2022/08/15 07:04:45;;;;;;;6.45;5.25;;;24.70;62.40;;;;;;5013332;28;20375;-14
2022/08/15 07:07:33;;;;;;;7.00;5.40;;;24.80;62.20;;;;;;5012259;28;20058;-15
2022/08/15 07:10:05;;;;;;;8.18;4.78;;;24.90;62.10;;;;;;5013528;28;20026;-15
2022/08/15 07:12:37;;;;;;;7.45;5.45;;;24.90;62.00;;;;;;5013501;28;20022;-14
2022/08/15 07:15:24;;;;;;;6.32;4.93;;;25.00;61.70;;;;;;5011610;28;20042;-14
2022/08/15 07:18:20;;;;;;;7.80;5.40;;;25.10;61.50;;;;;;5013433;28;20095;-15
2022/08/15 07:20:46;;;;;;;7.93;5.30;;;25.20;61.00;;;;;;4995708;28;20374;-16
2022/08/15 07:23:16;;;;;;;6.78;5.10;;;25.20;61.20;;;;;;5012865;28;20544;-14
2022/08/15 07:25:47;;;;;;;8.38;5.50;;;25.20;61.20;;;;;;5012974;28;20034;-14
2022/08/15 07:28:17;;;;;;;8.05;5.20;;;25.20;61.20;;;;;;5013021;28;20478;-14
2022/08/15 07:31:18;;;;;;;6.55;4.53;;;25.20;61.50;;;;;;5012898;28;20148;-14
2022/08/15 07:33:51;;;;;;;7.45;4.93;;;25.30;61.40;;;;;;4955739;28;20454;-14
2022/08/15 07:36:19;;;;;;;4.95;4.35;;;25.40;61.10;;;;;;4971923;28;20043;-13
2022/08/15 07:38:46;;;;;;;6.35;5.32;;;25.60;60.80;;;;;;4971831;28;20027;-14
2022/08/15 07:41:38;;;;;;;8.73;5.88;;;25.80;60.30;;;;;;4955428;28;20134;-14
2022/08/15 07:44:30;;;;;;;7.82;5.32;;;25.80;59.50;;;;;;4971862;28;20037;-16
2022/08/15 07:47:00;;;;;;;9.35;4.78;;;25.90;59.80;;;;;;4971632;28;20408;-15
2022/08/15 07:49:32;;;;;;;6.03;4.88;;;25.90;59.70;;;;;;4973701;28;20027;-15
2022/08/15 07:51:58;;;;;;;7.70;5.65;;;26.00;59.40;;;;;;4975303;28;20034;-15
2022/08/15 07:54:27;;;;;;;7.55;5.03;;;26.00;59.50;;;;;;4975311;28;20455;-14
2022/08/15 07:56:58;;;;;;;6.95;5.00;;;26.00;59.40;;;;;;4974838;28;20132;-16
2022/08/15 07:59:36;;;;;;;7.43;5.40;;;26.10;59.70;;;;;;4975713;28;20146;-14
2022/08/15 08:02:29;;;;;;;6.85;4.75;;;26.20;59.70;;;;;;4975187;28;20402;-14
2022/08/15 08:04:56;;;;;;;6.75;5.30;;;26.50;59.90;;;;;;4974935;28;20027;-14
2022/08/15 08:07:34;;;;;;;10.02;5.50;;;26.90;58.60;;;;;;4989805;28;20410;-16
2022/08/15 08:10:31;;;;;;;7.60;4.82;;;27.20;57.90;;;;;;5016458;28;20033;-14
2022/08/15 08:13:30;;;;;;;8.13;4.70;;;27.50;56.60;;;;;;5015799;28;20037;-14
2022/08/15 08:16:15;;;;;;;4.90;4.00;;;27.90;56.20;;;;;;5016039;28;20034;-15
2022/08/15 08:19:10;;;;;;;6.30;4.90;;;28.30;55.60;;;;;;5016277;28;20109;-15
2022/08/15 08:21:40;;;;;;;6.65;4.90;;;28.70;54.40;;;;;;5015565;28;20053;-14
2022/08/15 08:24:38;;;;;;;9.35;5.07;;;29.00;54.10;;;;;;5015778;28;20087;-13
2022/08/15 08:27:22;;;;;;;7.55;4.95;;;29.30;53.30;;;;;;5015533;28;20030;-15
2022/08/15 08:30:07;;;;;;;6.45;4.97;;;29.70;52.90;;;;;;5015887;28;20022;-15
2022/08/15 08:32:56;;;;;;;6.80;3.63;;;29.90;52.50;;;;;;5015619;28;20512;-15
2022/08/15 08:35:47;;;;;;;7.70;4.28;;;30.00;52.10;;;;;;5015816;28;20140;-15
2022/08/15 08:38:39;;;;;;;4.85;3.80;;;30.20;52.40;;;;;;5015892;28;20032;-15
2022/08/15 08:41:29;;;;;;;4.72;4.20;;;30.40;52.30;;;;;;5015398;28;20105;-15
2022/08/15 08:44:24;;;;;;;5.40;4.18;;;30.60;52.00;;;;;;5015756;28;20026;-14
2022/08/15 08:47:20;;;;;;;4.93;3.85;;;30.70;51.30;;;;;;5007808;28;20418;-14
2022/08/15 08:50:21;;;;;;;3.72;3.25;;;31.00;51.30;;;;;;5015656;28;20030;-14
2022/08/15 08:53:28;;;;;;;4.95;3.85;;;31.40;50.60;;;;;;5015312;28;20470;-14
2022/08/15 08:56:08;;;;;;;7.32;4.85;;;31.70;49.50;;;;;;5015192;28;20026;-14
2022/08/15 08:58:50;;;;;;;6.85;4.35;;;31.90;49.30;;;;;;5015162;28;20113;-13
2022/08/15 09:01:22;;;;;;;6.85;4.63;;;31.90;49.70;;;;;;5014035;28;20029;-13
2022/08/15 09:03:54;;;;;;;4.53;4.03;;;31.90;50.10;;;;;;5013700;28;20026;-14
2022/08/15 09:06:32;;;;;;;4.10;3.57;;;32.10;50.10;;;;;;5014870;28;20038;-15
2022/08/15 09:09:05;;;;;;;5.55;3.83;;;32.40;49.60;;;;;;5014908;28;20038;-14
2022/08/15 09:11:51;;;;;;;6.10;4.03;;;32.70;49.10;;;;;;5013749;28;20018;-14
2022/08/15 09:14:33;;;;;;;4.90;4.18;;;33.10;48.50;;;;;;5014914;28;20034;-14
2022/08/15 09:17:12;;;;;;;4.97;3.83;;;33.20;47.70;;;;;;5014924;28;20026;-15
2022/08/15 09:20:01;;;;;;;5.38;4.00;;;33.20;48.80;;;;;;5014825;28;20645;-15
2022/08/15 09:22:27;;;;;;;3.70;3.40;;;33.20;48.30;;;;;;5013527;28;20401;-13
2022/08/15 09:24:54;;;;;;;4.80;3.42;;;33.40;48.10;;;;;;5014394;28;20034;-14
2022/08/15 09:27:30;;;;;;;4.75;3.50;;;33.80;47.10;;;;;;5014582;28;20044;-14
2022/08/15 09:30:06;;;;;;;4.18;3.50;;;33.90;45.60;;;;;;5014900;28;20056;-15
2022/08/15 09:32:35;;;;;;;4.65;3.30;;;34.00;45.10;;;;;;5014848;28;20029;-13
2022/08/15 09:35:12;;;;;;;4.88;3.65;;;34.20;45.10;;;;;;5014258;28;20033;-14
2022/08/15 09:37:56;;;;;;;5.85;3.58;;;34.40;43.30;;;;;;5014477;28;20057;-14
2022/08/15 09:40:36;;;;;;;4.43;3.38;;;34.50;43.50;;;;;;5014398;28;20061;-14
2022/08/15 09:43:22;;;;;;;3.70;3.10;;;34.80;42.30;;;;;;5014126;28;20070;-14
2022/08/15 09:46:07;;;;;;;4.38;3.15;;;34.90;41.70;;;;;;5014548;28;20030;-13
2022/08/15 09:48:45;;;;;;;5.70;3.60;;;35.10;41.70;;;;;;5014770;28;20037;-13
2022/08/15 09:51:33;;;;;;;4.25;3.20;;;35.10;41.10;;;;;;5014335;28;20030;-13
2022/08/15 09:54:22;;;;;;;4.13;3.60;;;35.00;41.70;;;;;;5014543;28;20018;-14
2022/08/15 09:56:49;;;;;;;4.82;3.65;;;35.00;42.20;;;;;;5013852;28;20500;-12
2022/08/15 09:59:19;;;;;;;5.57;3.55;;;34.90;42.30;;;;;;5014455;28;20061;-14
2022/08/15 10:02:10;;;;;;;5.70;3.65;;;34.90;41.80;;;;;;5014057;28;20049;-14
2022/08/15 10:04:40;;;;;;;5.75;4.13;;;34.80;39.90;;;;;;5012822;28;20030;-15
2022/08/15 10:07:31;;;;;;;4.75;4.07;;;34.40;42.30;;;;;;5013620;28;20132;-14
2022/08/15 10:10:00;;;;;;;4.00;3.60;;;34.30;41.10;;;;;;5014256;28;20497;-14
2022/08/15 10:12:27;;;;;;;4.32;3.40;;;34.00;42.60;;;;;;5013682;28;20390;-13
2022/08/15 10:14:53;;;;;;;5.40;4.00;;;33.60;43.30;;;;;;5013678;28;20038;-13
2022/08/15 10:17:27;;;;;;;3.60;3.30;;;33.50;43.60;;;;;;5014061;28;20375;-14
2022/08/15 10:19:56;;;;;;;4.47;3.53;;;33.50;43.90;;;;;;5013702;28;20034;-13
2022/08/15 10:22:25;;;;;;;4.15;3.70;;;33.70;43.70;;;;;;5013926;28;20030;-14
2022/08/15 10:25:24;;;;;;;3.30;3.00;;;34.00;42.80;;;;;;5013477;28;20390;-14
2022/08/15 10:28:11;;;;;;;4.75;3.47;;;34.10;42.00;;;;;;5013587;28;20402;-15
2022/08/15 10:30:51;;;;;;;10.10;3.45;;;34.40;42.30;;;;;;5013679;28;20026;-15
2022/08/15 10:33:33;;;;;;;4.68;3.67;;;34.80;41.50;;;;;;5013587;28;20026;-14
2022/08/15 10:36:34;;;;;;;4.53;3.38;;;35.30;40.40;;;;;;5013486;28;20083;-14
2022/08/15 10:39:35;;;;;;;4.63;4.00;;;35.80;39.80;;;;;;5013326;28;20022;-15
2022/08/15 10:42:19;;;;;;;5.28;4.03;;;36.10;39.20;;;;;;5013683;28;20393;-14
2022/08/15 10:45:11;;;;;;;4.43;3.33;;;35.90;39.00;;;;;;5013403;28;20089;-13
2022/08/15 10:48:01;;;;;;;5.65;4.03;;;35.80;39.40;;;;;;5013717;28;20030;-15
2022/08/15 10:50:58;;;;;;;5.18;4.00;;;35.90;39.20;;;;;;5013587;28;20029;-15
2022/08/15 10:53:45;;;;;;;3.65;3.35;;;36.00;38.80;;;;;;5010385;28;20107;-14
2022/08/15 10:56:16;;;;;;;3.80;3.40;;;36.20;37.90;;;;;;5013252;28;20489;-13
2022/08/15 10:58:45;;;;;;;4.20;3.72;;;36.50;37.60;;;;;;5013254;28;20041;-14
2022/08/15 11:01:21;;;;;;;4.45;3.63;;;36.40;36.90;;;;;;5012955;28;20520;-14
2022/08/15 11:04:05;;;;;;;4.95;3.90;;;36.30;37.10;;;;;;5012507;28;20072;-14
2022/08/15 11:06:39;;;;;;;3.70;3.40;;;36.30;37.40;;;;;;5004194;28;20457;-14
2022/08/15 11:09:13;;;;;;;4.15;3.65;;;36.40;37.30;;;;;;5013330;28;20034;-14
2022/08/15 11:11:48;;;;;;;4.25;3.50;;;36.40;37.00;;;;;;5013506;28;20034;-13
2022/08/15 11:14:39;;;;;;;3.78;3.38;;;36.50;37.10;;;;;;5013385;28;20421;-13
2022/08/15 11:17:18;;;;;;;5.88;3.58;;;36.70;35.80;;;;;;5012848;28;20026;-13
2022/08/15 11:19:51;;;;;;;4.70;3.35;;;36.80;36.10;;;;;;5013104;28;20069;-13
2022/08/15 11:22:37;;;;;;;5.10;3.60;;;36.90;36.60;;;;;;5011877;28;20022;-13
2022/08/15 11:25:12;;;;;;;4.18;3.40;;;37.20;35.80;;;;;;5015760;28;20029;-13
2022/08/15 11:27:38;;;;;;;6.95;4.00;;;37.40;35.20;;;;;;5016916;28;20018;-13
2022/08/15 11:30:08;;;;;;;4.05;3.65;;;37.30;35.40;;;;;;5016667;28;20065;-13
2022/08/15 11:32:38;;;;;;;4.32;3.53;;;37.10;35.80;;;;;;5016934;28;20121;-13
2022/08/15 11:35:21;;;;;;;4.68;3.30;;;37.20;35.50;;;;;;5016716;28;20161;-13
2022/08/15 11:37:47;;;;;;;5.97;3.35;;;37.40;35.30;;;;;;5016733;28;20470;-14
2022/08/15 11:40:22;;;;;;;3.40;3.10;;;37.60;35.30;;;;;;5016811;28;20069;-14
2022/08/15 11:42:50;;;;;;;3.75;3.40;;;38.00;35.00;;;;;;5016463;28;20126;-13
2022/08/15 11:45:19;;;;;;;4.05;3.17;;;38.50;34.60;;;;;;5016442;28;20029;-14
2022/08/15 11:47:58;;;;;;;3.70;3.20;;;38.90;34.10;;;;;;5016710;28;20029;-14
2022/08/15 11:50:38;;;;;;;5.88;3.10;;;39.10;32.50;;;;;;5016590;28;20037;-14
2022/08/15 11:53:11;;;;;;;4.03;3.17;;;39.10;33.60;;;;;;5016213;28;20088;-14
2022/08/15 11:55:39;;;;;;;3.47;3.05;;;39.20;32.60;;;;;;5016315;28;20033;-13
2022/08/15 11:58:13;;;;;;;3.47;3.00;;;39.20;32.10;;;;;;5016679;28;20096;-15
2022/08/15 12:00:48;;;;;;;4.75;3.20;;;39.10;32.20;;;;;;5016239;28;20033;-14
2022/08/15 12:03:23;;;;;;;3.33;3.03;;;38.90;31.90;;;;;;5016553;28;20034;-14
2022/08/15 12:05:54;;;;;;;3.63;3.30;;;38.70;32.20;;;;;;5016535;28;20018;-14
2022/08/15 12:08:25;;;;;;;3.28;2.97;;;38.50;31.90;;;;;;5015919;28;20387;-13
2022/08/15 12:11:05;;;;;;;4.57;3.08;;;38.40;32.50;;;;;;5016067;28;20025;-14
2022/08/15 12:13:31;;;;;;;2.80;2.60;;;38.10;32.50;;;;;;5016386;28;20018;-13
2022/08/15 12:15:58;;;;;;;3.08;2.88;;;38.00;32.70;;;;;;5015831;28;20496;-13
2022/08/15 12:18:24;;;;;;;4.47;3.35;;;38.00;32.50;;;;;;5016135;28;20033;-14
2022/08/15 12:20:59;;;;;;;3.47;3.08;;;37.90;32.80;;;;;;5016467;28;20105;-14
2022/08/15 12:23:51;;;;;;;5.50;3.40;;;37.70;33.10;;;;;;5015814;28;20092;-12
2022/08/15 12:26:20;;;;;;;4.63;3.40;;;37.50;33.30;;;;;;5016096;28;20109;-13
2022/08/15 12:28:47;;;;;;;5.22;3.35;;;37.40;33.40;;;;;;5015825;28;20026;-13
2022/08/15 12:31:25;;;;;;;3.50;3.20;;;37.40;33.60;;;;;;5015610;28;20531;-14
2022/08/15 12:34:16;;;;;;;6.50;3.60;;;37.20;33.80;;;;;;5015707;28;20482;-13
2022/08/15 12:36:43;;;;;;;3.80;3.33;;;36.90;34.10;;;;;;5015641;28;20033;-13
2022/08/15 12:39:13;;;;;;;5.95;3.17;;;36.90;34.20;;;;;;5015705;28;20045;-13
2022/08/15 12:41:43;;;;;;;3.17;2.92;;;37.10;34.20;;;;;;5015348;28;20034;-13
2022/08/15 12:44:24;;;;;;;6.07;3.60;;;37.50;33.90;;;;;;5015440;28;20112;-13
2022/08/15 12:46:51;;;;;;;3.42;3.13;;;37.80;33.30;;;;;;5015263;28;20034;-13
2022/08/15 12:49:17;;;;;;;3.70;3.40;;;37.60;33.20;;;;;;5015867;28;20018;-13
2022/08/15 12:51:44;;;;;;;5.70;3.90;;;37.30;33.70;;;;;;5015394;28;20028;-13
2022/08/15 12:54:10;;;;;;;3.83;3.42;;;37.00;34.00;;;;;;5015563;28;20034;-13
2022/08/15 12:56:36;;;;;;;4.85;3.70;;;36.70;34.30;;;;;;5015198;28;20026;-13
2022/08/15 12:59:05;;;;;;;3.90;3.50;;;36.50;34.40;;;;;;5015055;28;20034;-13
2022/08/15 13:01:36;;;;;;;3.75;3.45;;;36.40;34.70;;;;;;5015352;28;20029;-13
2022/08/15 13:04:06;;;;;;;4.60;3.20;;;36.40;34.70;;;;;;5015262;28;20021;-13
2022/08/15 13:06:45;;;;;;;4.47;3.53;;;36.70;34.60;;;;;;5015005;28;20018;-14
2022/08/15 13:09:13;;;;;;;3.58;3.28;;;36.90;33.70;;;;;;5015410;28;20033;-13
2022/08/15 13:11:41;;;;;;;5.60;3.50;;;37.10;34.00;;;;;;5014936;28;20108;-13
2022/08/15 13:14:12;;;;;;;3.65;3.35;;;37.50;33.80;;;;;;5015172;28;20022;-13
2022/08/15 13:16:39;;;;;;;5.85;3.80;;;37.90;33.40;;;;;;5014707;28;20038;-13
2022/08/15 13:19:08;;;;;;;6.32;3.30;;;38.40;33.00;;;;;;5014709;28;20378;-13
2022/08/15 13:24:19;;;;;;;3.35;3.08;;;39.20;32.00;;;;;;5014837;28;20033;-13
2022/08/15 13:26:46;;;;;;;4.95;3.95;;;39.50;31.30;;;;;;5014628;28;20390;-14
2022/08/15 13:29:15;;;;;;;4.00;3.60;;;39.60;30.80;;;;;;5014590;28;20489;-13
2022/08/15 13:31:42;;;;;;;6.18;3.80;;;39.40;31.00;;;;;;5014456;28;20041;-13